WetterOnline ( https://www.wetteronline.de )

Wetter aktuell Finsterwalde

Aktuelles Wetter: Kirchhain (100m)

6-stündlich | Neueste Meldungen
Ortszeit Temperatur Wetter
Fr, 17.09. 2:00 15.2° C bedeckt
Do, 16.09. 20:00 15.9° C leicht bewölkt
Do, 16.09. 14:00 19.1° C bewölkt
Do, 16.09. 8:00 17.6° C bedeckt
Do, 16.09. 2:00 18.2° C bewölkt
Mi, 15.09. 20:00 18.7° C leichter Regen
Mi, 15.09. 14:00 21.0° C leichter Regen
Mi, 15.09. 8:00 15.1° C wolkig
Ortszeit Temperatur Wetter
Fr, 17.09. 6:30 14.6° C bewölkt
Fr, 17.09. 6:20 14.6° C bewölkt
Fr, 17.09. 6:10 14.7° C Sprühregen
Fr, 17.09. 6:00 14.9° C bewölkt
Fr, 17.09. 5:50 14.9° C bewölkt
Fr, 17.09. 5:40 15.0° C bewölkt
Fr, 17.09. 5:30 14.9° C bedeckt
Fr, 17.09. 5:00 14.9° C bedeckt
Fr, 17.09. 4:30 14.9° C bedeckt
Fr, 17.09. 4:00 15.0° C bedeckt
Fr, 17.09. 3:30 14.9° C bedeckt
Ortszeit Relative Feuchte Sichtweite
Fr, 17.09. 2:00 83% 55 km
Do, 16.09. 20:00 78% 55 km
Do, 16.09. 14:00 70% 50 km
Do, 16.09. 8:00 92% 7 km
Do, 16.09. 2:00 95% 22 km
Mi, 15.09. 20:00 95% 5.0 km
Mi, 15.09. 14:00 79% 28 km
Mi, 15.09. 8:00 94% 18 km
Ortszeit Relative Feuchte Sichtweite
Fr, 17.09. 6:30 86% 40 km
Fr, 17.09. 6:20 86% -
Fr, 17.09. 6:10 86% -
Fr, 17.09. 6:00 84% 50 km
Fr, 17.09. 5:50 84% -
Fr, 17.09. 5:40 84% -
Fr, 17.09. 5:30 84% 50 km
Fr, 17.09. 5:00 84% 50 km
Fr, 17.09. 4:30 85% 45 km
Fr, 17.09. 4:00 84% 55 km
Fr, 17.09. 3:30 85% 45 km
Ortszeit Niederschlagsmenge Niederschlagsart
Fr, 17.09. 2:00 0.0 l/m2 in 6 Std. -
Do, 16.09. 20:00 0.1 l/m2 in 12 Std. -
Do, 16.09. 14:00 0.1 l/m2 in 6 Std. Regen
Do, 16.09. 8:00 6 l/m2 in 12 Std. Regen
Do, 16.09. 2:00 6 l/m2 in 6 Std. Regen
Mi, 15.09. 20:00 7 l/m2 in 12 Std. Regen
Mi, 15.09. 14:00 0.5 l/m2 in 6 Std. Regen
Mi, 15.09. 8:00 0.0 l/m2 in 12 Std. -
Ortszeit Niederschlagsmenge Niederschlagsart
Fr, 17.09. 6:30 0.1 l/m2 in 1 Std. Schneeregen
Fr, 17.09. 6:20 keine Meldung -
Fr, 17.09. 6:10 keine Meldung -
Fr, 17.09. 6:00 0.0 l/m2 in 1 Std. -
Fr, 17.09. 5:50 keine Meldung -
Fr, 17.09. 5:40 keine Meldung -
Fr, 17.09. 5:30 0.0 l/m2 in 1 Std. -
Fr, 17.09. 5:00 0.0 l/m2 in 1 Std. -
Fr, 17.09. 4:30 0.0 l/m2 in 1 Std. -
Fr, 17.09. 4:00 0.0 l/m2 in 1 Std. -
Fr, 17.09. 3:30 0.0 l/m2 in 1 Std. -
Ortszeit Stärke Spitze Richtung
km/h Bft. km/h Grad Sektor
Fr, 17.09. 2:00 13 3 22 280° W
Do, 16.09. 20:00 9 2 31 270° W
Do, 16.09. 14:00 15 3 28 270° W
Do, 16.09. 8:00 9 2 22 250° W
Do, 16.09. 2:00 9 2 26 210° SW
Mi, 15.09. 20:00 6 1 19 150° SO
Mi, 15.09. 14:00 7 2 25 220° SW
Mi, 15.09. 8:00 0 0 7 - -
Ortszeit Stärke Spitze Richtung
km/h Bft. km/h Grad Sektor
Fr, 17.09. 6:30 13 3 24 260° W
Fr, 17.09. 6:20 13 3 - 260° W
Fr, 17.09. 6:10 14 3 - 270° W
Fr, 17.09. 6:00 15 3 22 260° W
Fr, 17.09. 5:50 15 3 - 260° W
Fr, 17.09. 5:40 15 3 - 260° W
Fr, 17.09. 5:30 14 3 22 260° W
Fr, 17.09. 5:00 13 3 20 260° W
Fr, 17.09. 4:30 11 2 22 260° W
Fr, 17.09. 4:00 11 2 22 260° W
Fr, 17.09. 3:30 11 2 22 270° W
Ortszeit Untergrenze Bedeckung Gattung
total tief tief mittel hoch
Fr, 17.09. 2:00 2100 m 8/8 8/8 - - -
Do, 16.09. 20:00 1800 m 2/8 2/8 - - -
Do, 16.09. 14:00 840 m 7/8 7/8 - - -
Do, 16.09. 8:00 1140 m 8/8 8/8 - - -
Do, 16.09. 2:00 330 m 8/8 7/8 - - -
Mi, 15.09. 20:00 1230 m 7/8 7/8 - - -
Mi, 15.09. 14:00 3000 m 7/8 7/8 - - -
Mi, 15.09. 8:00 1800 m 7/8 3/8 - - -
Ortszeit Bedeckungsgrad in Achtel und Wolkenuntergrenze
Fr, 17.09. 6:30 1(180m) 7(1080m) 7(1500m)
Fr, 17.09. 6:20 1(180m) 7(1080m) 7(1500m)
Fr, 17.09. 6:10 5(510m) 7(1140m) 7(1500m)
Fr, 17.09. 6:00 5(540m) 7(1260m) 7(1500m)
Fr, 17.09. 5:50 5(540m) 7(1260m) 7(1500m)
Fr, 17.09. 5:40 6(540m) 7(1500m)
Fr, 17.09. 5:30 8(1500m) 8(1500m)
Fr, 17.09. 5:00 8(1500m)
Fr, 17.09. 4:30 1(540m) 8(1800m)
Fr, 17.09. 4:00 8(1800m)
Fr, 17.09. 3:30 8(1800m)
Ortszeit Luftdruck NN (hPa) Tendenz (hPa in 3 Std.)
Fr, 17.09. 2:00 1014 - 0,1
Do, 16.09. 20:00 1014 + 0,3
Do, 16.09. 14:00 1014 + 0,3
Do, 16.09. 8:00 1013 + 1,2
Do, 16.09. 2:00 1011 0,0
Mi, 15.09. 20:00 1011 - 1,0
Mi, 15.09. 14:00 1013 - 0,4
Mi, 15.09. 8:00 1014 - 0,9
Ortszeit Luftdruck NN (hPa) Tendenz (hPa in 3 Std.)
Fr, 17.09. 6:30 1013 - 0,7
Fr, 17.09. 6:20 1013 keine Meldung
Fr, 17.09. 6:10 1013 keine Meldung
Fr, 17.09. 6:00 1013 - 0,8
Fr, 17.09. 5:50 1013 keine Meldung
Fr, 17.09. 5:40 1013 keine Meldung
Fr, 17.09. 5:30 1014 - 0,7
Fr, 17.09. 5:00 1014 - 0,8
Fr, 17.09. 4:30 1014 - 0,5
Fr, 17.09. 4:00 1014 - 0,4
Fr, 17.09. 3:30 1014 - 0,2
Ortszeit Schneehöhe (cm)
Fr, 17.09. 2:00 -
Do, 16.09. 20:00 -
Do, 16.09. 14:00 -
Do, 16.09. 8:00 -
Do, 16.09. 2:00 -
Mi, 15.09. 20:00 -
Mi, 15.09. 14:00 -
Mi, 15.09. 8:00 -
Ortszeit Schneehöhe (cm)
Fr, 17.09. 6:30 -
Fr, 17.09. 6:20 -
Fr, 17.09. 6:10 -
Fr, 17.09. 6:00 -
Fr, 17.09. 5:50 -
Fr, 17.09. 5:40 -
Fr, 17.09. 5:30 -
Fr, 17.09. 5:00 -
Fr, 17.09. 4:30 -
Fr, 17.09. 4:00 -
Fr, 17.09. 3:30 -
Link zu dieser Seite / Seite empfehlen

Das Wetter in ...